sensor_id;sensor_type;location;lat;lon;timestamp;P1;durP1;ratioP1;P2;durP2;ratioP2
8861;SDS011;4799;50.996;4.754;2023-08-17T00:01:40;3.47;;;2.60;;
8861;SDS011;4799;50.996;4.754;2023-08-17T00:04:06;3.23;;;2.53;;
8861;SDS011;4799;50.996;4.754;2023-08-17T00:06:32;4.93;;;2.60;;
8861;SDS011;4799;50.996;4.754;2023-08-17T00:08:57;3.37;;;2.63;;
8861;SDS011;4799;50.996;4.754;2023-08-17T00:11:23;3.43;;;2.60;;
8861;SDS011;4799;50.996;4.754;2023-08-17T00:13:49;3.53;;;2.50;;
8861;SDS011;4799;50.996;4.754;2023-08-17T00:16:15;3.13;;;2.40;;
8861;SDS011;4799;50.996;4.754;2023-08-17T00:18:41;3.10;;;2.43;;
8861;SDS011;4799;50.996;4.754;2023-08-17T00:21:07;3.73;;;2.50;;
8861;SDS011;4799;50.996;4.754;2023-08-17T00:23:33;3.67;;;2.60;;
8861;SDS011;4799;50.996;4.754;2023-08-17T00:25:59;3.33;;;2.43;;
8861;SDS011;4799;50.996;4.754;2023-08-17T00:28:25;7.33;;;2.77;;
8861;SDS011;4799;50.996;4.754;2023-08-17T00:30:51;3.53;;;2.90;;
8861;SDS011;4799;50.996;4.754;2023-08-17T00:33:17;3.47;;;2.63;;
8861;SDS011;4799;50.996;4.754;2023-08-17T00:35:43;3.00;;;2.60;;
8861;SDS011;4799;50.996;4.754;2023-08-17T00:38:10;3.93;;;2.70;;
8861;SDS011;4799;50.996;4.754;2023-08-17T00:40:37;2.90;;;2.60;;
8861;SDS011;4799;50.996;4.754;2023-08-17T00:43:03;5.60;;;2.80;;
8861;SDS011;4799;50.996;4.754;2023-08-17T00:45:31;2.80;;;2.60;;
8861;SDS011;4799;50.996;4.754;2023-08-17T00:47:57;3.00;;;2.67;;
8861;SDS011;4799;50.996;4.754;2023-08-17T00:50:24;4.57;;;2.90;;
8861;SDS011;4799;50.996;4.754;2023-08-17T00:52:53;3.50;;;2.73;;
8861;SDS011;4799;50.996;4.754;2023-08-17T00:55:20;3.43;;;2.87;;
8861;SDS011;4799;50.996;4.754;2023-08-17T00:57:47;5.83;;;2.90;;
8861;SDS011;4799;50.996;4.754;2023-08-17T01:00:13;3.10;;;2.80;;
8861;SDS011;4799;50.996;4.754;2023-08-17T01:02:40;3.13;;;2.83;;
8861;SDS011;4799;50.996;4.754;2023-08-17T01:05:06;4.40;;;3.13;;
8861;SDS011;4799;50.996;4.754;2023-08-17T01:07:32;3.93;;;2.83;;
8861;SDS011;4799;50.996;4.754;2023-08-17T01:09:58;4.87;;;3.07;;
8861;SDS011;4799;50.996;4.754;2023-08-17T01:12:32;4.00;;;3.30;;
8861;SDS011;4799;50.996;4.754;2023-08-17T01:17:56;3.40;;;3.10;;
8861;SDS011;4799;50.996;4.754;2023-08-17T01:20:29;3.83;;;3.20;;
8861;SDS011;4799;50.996;4.754;2023-08-17T01:23:02;3.40;;;3.10;;
8861;SDS011;4799;50.996;4.754;2023-08-17T01:25:31;3.93;;;3.00;;
8861;SDS011;4799;50.996;4.754;2023-08-17T01:28:01;4.03;;;2.97;;
8861;SDS011;4799;50.996;4.754;2023-08-17T01:30:28;5.13;;;3.00;;
8861;SDS011;4799;50.996;4.754;2023-08-17T01:33:03;3.30;;;3.00;;
8861;SDS011;4799;50.996;4.754;2023-08-17T01:35:41;3.97;;;3.37;;
8861;SDS011;4799;50.996;4.754;2023-08-17T01:38:17;4.50;;;3.13;;
8861;SDS011;4799;50.996;4.754;2023-08-17T01:40:48;3.93;;;3.20;;
8861;SDS011;4799;50.996;4.754;2023-08-17T01:43:16;4.83;;;3.37;;
8861;SDS011;4799;50.996;4.754;2023-08-17T01:45:43;4.43;;;3.30;;
8861;SDS011;4799;50.996;4.754;2023-08-17T01:48:09;5.37;;;3.10;;
8861;SDS011;4799;50.996;4.754;2023-08-17T01:50:34;4.37;;;3.10;;
8861;SDS011;4799;50.996;4.754;2023-08-17T01:53:00;4.10;;;3.00;;
8861;SDS011;4799;50.996;4.754;2023-08-17T01:55:26;3.57;;;3.00;;
8861;SDS011;4799;50.996;4.754;2023-08-17T01:57:52;3.97;;;3.00;;
8861;SDS011;4799;50.996;4.754;2023-08-17T02:00:18;5.23;;;3.40;;
8861;SDS011;4799;50.996;4.754;2023-08-17T02:02:44;4.07;;;3.10;;
8861;SDS011;4799;50.996;4.754;2023-08-17T02:05:10;4.10;;;3.33;;
8861;SDS011;4799;50.996;4.754;2023-08-17T02:07:36;4.17;;;3.03;;
8861;SDS011;4799;50.996;4.754;2023-08-17T02:10:01;5.07;;;3.20;;
8861;SDS011;4799;50.996;4.754;2023-08-17T02:12:27;5.87;;;3.37;;
8861;SDS011;4799;50.996;4.754;2023-08-17T02:14:53;3.80;;;3.10;;
8861;SDS011;4799;50.996;4.754;2023-08-17T02:17:20;4.80;;;3.47;;
8861;SDS011;4799;50.996;4.754;2023-08-17T02:19:47;4.43;;;3.30;;
8861;SDS011;4799;50.996;4.754;2023-08-17T02:22:13;3.50;;;3.10;;
8861;SDS011;4799;50.996;4.754;2023-08-17T02:24:39;5.00;;;3.17;;
8861;SDS011;4799;50.996;4.754;2023-08-17T02:27:06;6.07;;;3.00;;
8861;SDS011;4799;50.996;4.754;2023-08-17T02:29:32;4.47;;;2.97;;
8861;SDS011;4799;50.996;4.754;2023-08-17T02:31:58;6.63;;;3.30;;
8861;SDS011;4799;50.996;4.754;2023-08-17T02:34:23;4.83;;;3.40;;
8861;SDS011;4799;50.996;4.754;2023-08-17T02:36:49;4.63;;;3.40;;
8861;SDS011;4799;50.996;4.754;2023-08-17T02:39:15;4.47;;;3.47;;
8861;SDS011;4799;50.996;4.754;2023-08-17T02:41:40;4.40;;;3.27;;
8861;SDS011;4799;50.996;4.754;2023-08-17T02:44:06;5.80;;;3.40;;
8861;SDS011;4799;50.996;4.754;2023-08-17T02:46:32;4.63;;;3.40;;
8861;SDS011;4799;50.996;4.754;2023-08-17T02:48:57;4.80;;;3.67;;
8861;SDS011;4799;50.996;4.754;2023-08-17T02:51:23;4.83;;;3.40;;
8861;SDS011;4799;50.996;4.754;2023-08-17T02:53:49;6.40;;;3.77;;
8861;SDS011;4799;50.996;4.754;2023-08-17T02:56:15;4.87;;;3.50;;
8861;SDS011;4799;50.996;4.754;2023-08-17T02:58:40;4.47;;;3.20;;
8861;SDS011;4799;50.996;4.754;2023-08-17T03:01:07;6.33;;;3.97;;
8861;SDS011;4799;50.996;4.754;2023-08-17T03:03:33;7.53;;;3.70;;
8861;SDS011;4799;50.996;4.754;2023-08-17T03:05:59;5.07;;;4.03;;
8861;SDS011;4799;50.996;4.754;2023-08-17T03:08:24;5.30;;;3.87;;
8861;SDS011;4799;50.996;4.754;2023-08-17T03:10:50;3.90;;;3.40;;
8861;SDS011;4799;50.996;4.754;2023-08-17T03:13:16;6.60;;;3.70;;
8861;SDS011;4799;50.996;4.754;2023-08-17T03:15:42;5.17;;;3.80;;
8861;SDS011;4799;50.996;4.754;2023-08-17T03:18:07;4.40;;;3.73;;
8861;SDS011;4799;50.996;4.754;2023-08-17T03:20:33;5.57;;;3.77;;
8861;SDS011;4799;50.996;4.754;2023-08-17T03:22:59;5.87;;;3.80;;
8861;SDS011;4799;50.996;4.754;2023-08-17T03:25:24;5.00;;;3.60;;
8861;SDS011;4799;50.996;4.754;2023-08-17T03:27:50;5.27;;;3.67;;
8861;SDS011;4799;50.996;4.754;2023-08-17T03:30:16;4.87;;;3.73;;
8861;SDS011;4799;50.996;4.754;2023-08-17T03:32:42;5.80;;;3.63;;
8861;SDS011;4799;50.996;4.754;2023-08-17T03:35:07;5.37;;;4.03;;
8861;SDS011;4799;50.996;4.754;2023-08-17T03:37:33;5.03;;;3.80;;
8861;SDS011;4799;50.996;4.754;2023-08-17T03:39:59;4.50;;;3.50;;
8861;SDS011;4799;50.996;4.754;2023-08-17T03:42:26;6.40;;;3.70;;
8861;SDS011;4799;50.996;4.754;2023-08-17T03:44:52;4.73;;;3.70;;
8861;SDS011;4799;50.996;4.754;2023-08-17T03:47:18;4.37;;;3.70;;
8861;SDS011;4799;50.996;4.754;2023-08-17T03:49:44;5.80;;;3.70;;
8861;SDS011;4799;50.996;4.754;2023-08-17T03:52:10;4.93;;;3.80;;
8861;SDS011;4799;50.996;4.754;2023-08-17T03:54:36;5.57;;;3.90;;
8861;SDS011;4799;50.996;4.754;2023-08-17T03:57:01;5.00;;;3.50;;
8861;SDS011;4799;50.996;4.754;2023-08-17T03:59:27;4.87;;;3.50;;
8861;SDS011;4799;50.996;4.754;2023-08-17T04:01:53;4.00;;;3.60;;
8861;SDS011;4799;50.996;4.754;2023-08-17T04:04:19;5.43;;;3.60;;
8861;SDS011;4799;50.996;4.754;2023-08-17T04:06:44;5.40;;;3.60;;
8861;SDS011;4799;50.996;4.754;2023-08-17T04:09:10;5.30;;;3.53;;
8861;SDS011;4799;50.996;4.754;2023-08-17T04:11:36;6.93;;;3.57;;
8861;SDS011;4799;50.996;4.754;2023-08-17T04:14:02;6.60;;;3.60;;
8861;SDS011;4799;50.996;4.754;2023-08-17T04:16:28;5.97;;;3.40;;
8861;SDS011;4799;50.996;4.754;2023-08-17T04:18:54;5.37;;;3.77;;
8861;SDS011;4799;50.996;4.754;2023-08-17T04:21:20;5.87;;;3.87;;
8861;SDS011;4799;50.996;4.754;2023-08-17T04:23:46;4.43;;;3.40;;
8861;SDS011;4799;50.996;4.754;2023-08-17T04:26:12;5.30;;;3.80;;
8861;SDS011;4799;50.996;4.754;2023-08-17T04:28:38;3.73;;;3.40;;
8861;SDS011;4799;50.996;4.754;2023-08-17T04:31:03;4.27;;;3.87;;
8861;SDS011;4799;50.996;4.754;2023-08-17T04:33:29;4.20;;;3.80;;
8861;SDS011;4799;50.996;4.754;2023-08-17T04:35:55;4.77;;;4.00;;
8861;SDS011;4799;50.996;4.754;2023-08-17T04:38:21;5.37;;;3.73;;
8861;SDS011;4799;50.996;4.754;2023-08-17T04:40:47;4.73;;;3.90;;
8861;SDS011;4799;50.996;4.754;2023-08-17T04:43:12;4.17;;;3.77;;
8861;SDS011;4799;50.996;4.754;2023-08-17T04:45:38;6.40;;;3.87;;
8861;SDS011;4799;50.996;4.754;2023-08-17T04:48:05;4.73;;;3.70;;
8861;SDS011;4799;50.996;4.754;2023-08-17T04:50:31;6.00;;;3.93;;
8861;SDS011;4799;50.996;4.754;2023-08-17T04:52:57;4.27;;;3.77;;
8861;SDS011;4799;50.996;4.754;2023-08-17T04:55:23;7.20;;;4.27;;
8861;SDS011;4799;50.996;4.754;2023-08-17T04:57:49;4.80;;;3.73;;
8861;SDS011;4799;50.996;4.754;2023-08-17T05:00:15;4.63;;;4.00;;
8861;SDS011;4799;50.996;4.754;2023-08-17T05:02:41;4.53;;;4.00;;
8861;SDS011;4799;50.996;4.754;2023-08-17T05:05:10;5.77;;;3.90;;
8861;SDS011;4799;50.996;4.754;2023-08-17T05:07:36;5.33;;;3.80;;
8861;SDS011;4799;50.996;4.754;2023-08-17T05:10:02;4.30;;;3.90;;
8861;SDS011;4799;50.996;4.754;2023-08-17T05:12:27;4.00;;;3.50;;
8861;SDS011;4799;50.996;4.754;2023-08-17T05:14:53;5.60;;;3.50;;
8861;SDS011;4799;50.996;4.754;2023-08-17T05:17:19;7.10;;;3.93;;
8861;SDS011;4799;50.996;4.754;2023-08-17T05:19:45;4.90;;;3.73;;
8861;SDS011;4799;50.996;4.754;2023-08-17T05:22:11;6.73;;;3.90;;
8861;SDS011;4799;50.996;4.754;2023-08-17T05:24:38;7.10;;;4.20;;
8861;SDS011;4799;50.996;4.754;2023-08-17T05:27:04;5.20;;;3.97;;
8861;SDS011;4799;50.996;4.754;2023-08-17T05:29:30;7.40;;;3.93;;
8861;SDS011;4799;50.996;4.754;2023-08-17T05:31:59;5.00;;;3.60;;
8861;SDS011;4799;50.996;4.754;2023-08-17T05:34:25;6.07;;;3.60;;
8861;SDS011;4799;50.996;4.754;2023-08-17T05:36:51;5.13;;;3.70;;
8861;SDS011;4799;50.996;4.754;2023-08-17T05:39:17;5.20;;;3.63;;
8861;SDS011;4799;50.996;4.754;2023-08-17T05:41:43;7.57;;;3.93;;
8861;SDS011;4799;50.996;4.754;2023-08-17T05:44:08;5.30;;;3.80;;
8861;SDS011;4799;50.996;4.754;2023-08-17T05:46:35;5.63;;;3.63;;
8861;SDS011;4799;50.996;4.754;2023-08-17T05:49:01;5.43;;;3.90;;
8861;SDS011;4799;50.996;4.754;2023-08-17T05:51:27;4.13;;;3.73;;
8861;SDS011;4799;50.996;4.754;2023-08-17T05:53:53;5.60;;;3.90;;
8861;SDS011;4799;50.996;4.754;2023-08-17T05:56:19;4.57;;;3.80;;
8861;SDS011;4799;50.996;4.754;2023-08-17T05:58:45;5.50;;;3.77;;
8861;SDS011;4799;50.996;4.754;2023-08-17T06:01:11;4.67;;;3.60;;
8861;SDS011;4799;50.996;4.754;2023-08-17T06:03:37;4.60;;;3.60;;
8861;SDS011;4799;50.996;4.754;2023-08-17T06:06:03;4.13;;;3.50;;
8861;SDS011;4799;50.996;4.754;2023-08-17T06:08:30;7.90;;;4.23;;
8861;SDS011;4799;50.996;4.754;2023-08-17T06:10:56;6.77;;;3.80;;
8861;SDS011;4799;50.996;4.754;2023-08-17T06:13:22;5.70;;;4.50;;
8861;SDS011;4799;50.996;4.754;2023-08-17T06:15:48;6.10;;;4.20;;
8861;SDS011;4799;50.996;4.754;2023-08-17T06:18:14;5.07;;;4.20;;
8861;SDS011;4799;50.996;4.754;2023-08-17T06:20:39;7.77;;;4.33;;
8861;SDS011;4799;50.996;4.754;2023-08-17T06:23:05;7.33;;;4.10;;
8861;SDS011;4799;50.996;4.754;2023-08-17T06:25:31;5.00;;;4.07;;
8861;SDS011;4799;50.996;4.754;2023-08-17T06:27:57;5.07;;;4.20;;
8861;SDS011;4799;50.996;4.754;2023-08-17T06:30:22;8.43;;;4.30;;
8861;SDS011;4799;50.996;4.754;2023-08-17T06:32:50;7.40;;;4.43;;
8861;SDS011;4799;50.996;4.754;2023-08-17T06:35:16;5.30;;;3.90;;
8861;SDS011;4799;50.996;4.754;2023-08-17T06:37:42;7.30;;;4.10;;
8861;SDS011;4799;50.996;4.754;2023-08-17T06:40:08;5.20;;;3.70;;
8861;SDS011;4799;50.996;4.754;2023-08-17T06:42:36;5.17;;;3.70;;
8861;SDS011;4799;50.996;4.754;2023-08-17T06:45:03;9.03;;;3.97;;
8861;SDS011;4799;50.996;4.754;2023-08-17T06:47:29;5.10;;;3.70;;
8861;SDS011;4799;50.996;4.754;2023-08-17T06:49:55;4.73;;;3.87;;
8861;SDS011;4799;50.996;4.754;2023-08-17T06:52:22;6.83;;;3.93;;
8861;SDS011;4799;50.996;4.754;2023-08-17T06:54:49;4.73;;;3.40;;
8861;SDS011;4799;50.996;4.754;2023-08-17T06:57:15;4.73;;;4.03;;
8861;SDS011;4799;50.996;4.754;2023-08-17T06:59:40;5.20;;;3.47;;
8861;SDS011;4799;50.996;4.754;2023-08-17T07:02:06;4.97;;;4.17;;
8861;SDS011;4799;50.996;4.754;2023-08-17T07:04:32;5.83;;;3.60;;
8861;SDS011;4799;50.996;4.754;2023-08-17T07:06:58;5.03;;;3.57;;
8861;SDS011;4799;50.996;4.754;2023-08-17T07:09:24;5.00;;;4.03;;
8861;SDS011;4799;50.996;4.754;2023-08-17T07:11:50;4.80;;;3.30;;
8861;SDS011;4799;50.996;4.754;2023-08-17T07:14:16;4.70;;;3.13;;
8861;SDS011;4799;50.996;4.754;2023-08-17T07:16:41;6.83;;;4.00;;
8861;SDS011;4799;50.996;4.754;2023-08-17T07:19:07;6.37;;;3.80;;
8861;SDS011;4799;50.996;4.754;2023-08-17T07:21:33;5.03;;;3.53;;
8861;SDS011;4799;50.996;4.754;2023-08-17T07:24:08;5.00;;;3.60;;
8861;SDS011;4799;50.996;4.754;2023-08-17T07:26:37;5.70;;;3.40;;
8861;SDS011;4799;50.996;4.754;2023-08-17T07:29:03;6.57;;;3.80;;
8861;SDS011;4799;50.996;4.754;2023-08-17T07:31:29;5.13;;;3.47;;
8861;SDS011;4799;50.996;4.754;2023-08-17T07:33:54;5.40;;;3.87;;
8861;SDS011;4799;50.996;4.754;2023-08-17T07:36:20;5.47;;;4.13;;
8861;SDS011;4799;50.996;4.754;2023-08-17T07:38:46;8.53;;;3.83;;
8861;SDS011;4799;50.996;4.754;2023-08-17T07:41:11;4.93;;;3.70;;
8861;SDS011;4799;50.996;4.754;2023-08-17T07:43:37;5.27;;;3.90;;
8861;SDS011;4799;50.996;4.754;2023-08-17T07:46:03;5.93;;;4.20;;
8861;SDS011;4799;50.996;4.754;2023-08-17T07:48:28;7.47;;;4.20;;
8861;SDS011;4799;50.996;4.754;2023-08-17T07:50:58;4.47;;;3.90;;
8861;SDS011;4799;50.996;4.754;2023-08-17T07:53:24;4.70;;;3.70;;
8861;SDS011;4799;50.996;4.754;2023-08-17T07:55:50;5.40;;;3.97;;
8861;SDS011;4799;50.996;4.754;2023-08-17T07:58:16;6.73;;;4.03;;
8861;SDS011;4799;50.996;4.754;2023-08-17T08:00:41;6.30;;;4.10;;
8861;SDS011;4799;50.996;4.754;2023-08-17T08:03:07;6.13;;;4.00;;
8861;SDS011;4799;50.996;4.754;2023-08-17T08:05:33;5.67;;;3.73;;
8861;SDS011;4799;50.996;4.754;2023-08-17T08:07:59;4.97;;;4.13;;
8861;SDS011;4799;50.996;4.754;2023-08-17T08:10:24;5.13;;;4.27;;
8861;SDS011;4799;50.996;4.754;2023-08-17T08:12:50;5.30;;;3.80;;
8861;SDS011;4799;50.996;4.754;2023-08-17T08:15:16;4.77;;;3.47;;
8861;SDS011;4799;50.996;4.754;2023-08-17T08:17:41;6.80;;;3.90;;
8861;SDS011;4799;50.996;4.754;2023-08-17T08:20:07;6.00;;;3.90;;
8861;SDS011;4799;50.996;4.754;2023-08-17T08:22:33;5.83;;;4.13;;
8861;SDS011;4799;50.996;4.754;2023-08-17T08:24:59;3.90;;;3.50;;
8861;SDS011;4799;50.996;4.754;2023-08-17T08:27:24;6.03;;;3.50;;
8861;SDS011;4799;50.996;4.754;2023-08-17T08:29:50;5.23;;;3.67;;
8861;SDS011;4799;50.996;4.754;2023-08-17T08:32:16;7.27;;;3.93;;
8861;SDS011;4799;50.996;4.754;2023-08-17T08:34:42;5.40;;;3.97;;
8861;SDS011;4799;50.996;4.754;2023-08-17T08:37:07;4.83;;;4.10;;
8861;SDS011;4799;50.996;4.754;2023-08-17T08:39:33;6.00;;;5.17;;
8861;SDS011;4799;50.996;4.754;2023-08-17T08:42:14;5.07;;;4.37;;
8861;SDS011;4799;50.996;4.754;2023-08-17T08:44:40;5.93;;;4.37;;
8861;SDS011;4799;50.996;4.754;2023-08-17T08:47:06;6.47;;;4.10;;
8861;SDS011;4799;50.996;4.754;2023-08-17T08:49:32;5.97;;;4.40;;
8861;SDS011;4799;50.996;4.754;2023-08-17T08:52:03;5.13;;;4.17;;
8861;SDS011;4799;50.996;4.754;2023-08-17T08:54:32;5.13;;;4.20;;
8861;SDS011;4799;50.996;4.754;2023-08-17T08:57:03;6.47;;;4.07;;
8861;SDS011;4799;50.996;4.754;2023-08-17T08:59:34;6.10;;;4.27;;
8861;SDS011;4799;50.996;4.754;2023-08-17T09:02:01;8.77;;;4.47;;
8861;SDS011;4799;50.996;4.754;2023-08-17T09:04:28;6.27;;;4.53;;
8861;SDS011;4799;50.996;4.754;2023-08-17T09:06:54;6.30;;;4.73;;
8861;SDS011;4799;50.996;4.754;2023-08-17T09:09:21;6.47;;;5.40;;
8861;SDS011;4799;50.996;4.754;2023-08-17T09:11:48;6.33;;;5.30;;
8861;SDS011;4799;50.996;4.754;2023-08-17T09:14:14;5.87;;;5.03;;
8861;SDS011;4799;50.996;4.754;2023-08-17T09:16:39;8.23;;;5.30;;
8861;SDS011;4799;50.996;4.754;2023-08-17T09:19:05;6.00;;;5.40;;
8861;SDS011;4799;50.996;4.754;2023-08-17T09:21:31;7.30;;;5.27;;
8861;SDS011;4799;50.996;4.754;2023-08-17T09:23:58;6.03;;;5.40;;
8861;SDS011;4799;50.996;4.754;2023-08-17T09:26:24;9.63;;;5.27;;
8861;SDS011;4799;50.996;4.754;2023-08-17T09:28:52;8.13;;;5.10;;
8861;SDS011;4799;50.996;4.754;2023-08-17T09:31:23;8.03;;;4.80;;
8861;SDS011;4799;50.996;4.754;2023-08-17T09:33:50;5.47;;;4.60;;
8861;SDS011;4799;50.996;4.754;2023-08-17T09:36:19;7.47;;;5.97;;
8861;SDS011;4799;50.996;4.754;2023-08-17T09:38:47;6.07;;;5.23;;
8861;SDS011;4799;50.996;4.754;2023-08-17T09:41:15;5.87;;;5.20;;
8861;SDS011;4799;50.996;4.754;2023-08-17T09:43:41;5.93;;;5.33;;
8861;SDS011;4799;50.996;4.754;2023-08-17T09:46:07;6.37;;;5.57;;
8861;SDS011;4799;50.996;4.754;2023-08-17T09:48:34;6.30;;;5.47;;
8861;SDS011;4799;50.996;4.754;2023-08-17T09:51:01;7.33;;;5.73;;
8861;SDS011;4799;50.996;4.754;2023-08-17T09:53:27;7.33;;;5.43;;
8861;SDS011;4799;50.996;4.754;2023-08-17T09:55:53;6.07;;;5.10;;
8861;SDS011;4799;50.996;4.754;2023-08-17T09:58:21;6.63;;;5.63;;
8861;SDS011;4799;50.996;4.754;2023-08-17T10:00:47;7.10;;;5.33;;
8861;SDS011;4799;50.996;4.754;2023-08-17T10:03:17;6.47;;;5.10;;
8861;SDS011;4799;50.996;4.754;2023-08-17T10:05:44;9.07;;;6.20;;
8861;SDS011;4799;50.996;4.754;2023-08-17T10:08:25;7.73;;;6.00;;
8861;SDS011;4799;50.996;4.754;2023-08-17T10:10:53;9.10;;;5.83;;
8861;SDS011;4799;50.996;4.754;2023-08-17T10:16:03;9.07;;;7.33;;
8861;SDS011;4799;50.996;4.754;2023-08-17T10:21:37;9.20;;;8.20;;
8861;SDS011;4799;50.996;4.754;2023-08-17T10:24:09;10.00;;;9.03;;
8861;SDS011;4799;50.996;4.754;2023-08-17T10:26:36;9.93;;;8.93;;
8861;SDS011;4799;50.996;4.754;2023-08-17T10:29:02;10.43;;;8.93;;
8861;SDS011;4799;50.996;4.754;2023-08-17T10:31:29;9.13;;;8.20;;
8861;SDS011;4799;50.996;4.754;2023-08-17T10:33:59;10.30;;;8.83;;
8861;SDS011;4799;50.996;4.754;2023-08-17T10:36:25;9.83;;;8.83;;
8861;SDS011;4799;50.996;4.754;2023-08-17T10:41:47;8.93;;;8.03;;
8861;SDS011;4799;50.996;4.754;2023-08-17T10:44:13;9.43;;;8.43;;
8861;SDS011;4799;50.996;4.754;2023-08-17T10:46:39;9.63;;;8.60;;
8861;SDS011;4799;50.996;4.754;2023-08-17T10:49:06;11.03;;;8.80;;
8861;SDS011;4799;50.996;4.754;2023-08-17T10:52:04;14.13;;;8.60;;
8861;SDS011;4799;50.996;4.754;2023-08-17T10:54:36;9.27;;;8.37;;
8861;SDS011;4799;50.996;4.754;2023-08-17T11:02:39;9.53;;;8.53;;
8861;SDS011;4799;50.996;4.754;2023-08-17T11:05:05;11.37;;;9.00;;
8861;SDS011;4799;50.996;4.754;2023-08-17T11:07:39;12.03;;;7.83;;
8861;SDS011;4799;50.996;4.754;2023-08-17T11:10:13;11.50;;;9.20;;
8861;SDS011;4799;50.996;4.754;2023-08-17T11:12:54;9.63;;;8.70;;
8861;SDS011;4799;50.996;4.754;2023-08-17T11:15:34;11.50;;;9.10;;
8861;SDS011;4799;50.996;4.754;2023-08-17T11:18:03;10.73;;;8.57;;
8861;SDS011;4799;50.996;4.754;2023-08-17T11:20:33;10.77;;;8.90;;
8861;SDS011;4799;50.996;4.754;2023-08-17T11:22:59;10.33;;;8.67;;
8861;SDS011;4799;50.996;4.754;2023-08-17T11:25:26;11.00;;;8.40;;
8861;SDS011;4799;50.996;4.754;2023-08-17T11:27:53;9.13;;;7.77;;
8861;SDS011;4799;50.996;4.754;2023-08-17T11:30:22;8.67;;;7.77;;
8861;SDS011;4799;50.996;4.754;2023-08-17T11:32:50;8.47;;;7.63;;
8861;SDS011;4799;50.996;4.754;2023-08-17T11:35:16;10.43;;;9.20;;
8861;SDS011;4799;50.996;4.754;2023-08-17T11:37:42;12.57;;;7.70;;
8861;SDS011;4799;50.996;4.754;2023-08-17T11:40:10;11.70;;;9.37;;
8861;SDS011;4799;50.996;4.754;2023-08-17T11:42:36;11.53;;;10.43;;
8861;SDS011;4799;50.996;4.754;2023-08-17T11:45:03;10.23;;;8.83;;
8861;SDS011;4799;50.996;4.754;2023-08-17T11:47:30;10.17;;;8.93;;
8861;SDS011;4799;50.996;4.754;2023-08-17T11:50:00;10.47;;;9.30;;
8861;SDS011;4799;50.996;4.754;2023-08-17T11:52:27;11.70;;;9.97;;
8861;SDS011;4799;50.996;4.754;2023-08-17T11:54:57;9.60;;;8.20;;
8861;SDS011;4799;50.996;4.754;2023-08-17T11:57:23;9.30;;;8.33;;
8861;SDS011;4799;50.996;4.754;2023-08-17T11:59:52;9.87;;;8.40;;
8861;SDS011;4799;50.996;4.754;2023-08-17T12:02:25;10.43;;;9.50;;
8861;SDS011;4799;50.996;4.754;2023-08-17T12:04:52;8.97;;;8.17;;
8861;SDS011;4799;50.996;4.754;2023-08-17T12:07:19;10.70;;;7.90;;
8861;SDS011;4799;50.996;4.754;2023-08-17T12:09:48;8.73;;;7.87;;
8861;SDS011;4799;50.996;4.754;2023-08-17T12:12:17;10.00;;;8.63;;
8861;SDS011;4799;50.996;4.754;2023-08-17T12:14:44;10.50;;;8.40;;
8861;SDS011;4799;50.996;4.754;2023-08-17T12:17:15;9.70;;;8.30;;
8861;SDS011;4799;50.996;4.754;2023-08-17T12:19:43;9.70;;;8.80;;
8861;SDS011;4799;50.996;4.754;2023-08-17T12:22:09;10.07;;;8.47;;
8861;SDS011;4799;50.996;4.754;2023-08-17T12:24:37;9.83;;;8.83;;
8861;SDS011;4799;50.996;4.754;2023-08-17T12:27:03;9.50;;;8.13;;
8861;SDS011;4799;50.996;4.754;2023-08-17T12:29:30;10.03;;;8.13;;
8861;SDS011;4799;50.996;4.754;2023-08-17T12:32:03;9.33;;;8.43;;
8861;SDS011;4799;50.996;4.754;2023-08-17T12:34:29;11.17;;;8.57;;
8861;SDS011;4799;50.996;4.754;2023-08-17T12:36:55;8.67;;;7.87;;
8861;SDS011;4799;50.996;4.754;2023-08-17T12:39:21;9.23;;;8.43;;
8861;SDS011;4799;50.996;4.754;2023-08-17T12:41:46;9.10;;;8.30;;
8861;SDS011;4799;50.996;4.754;2023-08-17T12:44:12;10.73;;;9.73;;
8861;SDS011;4799;50.996;4.754;2023-08-17T12:46:41;10.03;;;9.03;;
8861;SDS011;4799;50.996;4.754;2023-08-17T12:49:07;9.70;;;8.63;;
8861;SDS011;4799;50.996;4.754;2023-08-17T12:51:33;9.70;;;8.80;;
8861;SDS011;4799;50.996;4.754;2023-08-17T12:53:59;10.60;;;9.60;;
8861;SDS011;4799;50.996;4.754;2023-08-17T12:56:25;10.83;;;9.73;;
8861;SDS011;4799;50.996;4.754;2023-08-17T12:58:50;11.13;;;10.27;;
8861;SDS011;4799;50.996;4.754;2023-08-17T13:01:16;11.70;;;10.17;;
8861;SDS011;4799;50.996;4.754;2023-08-17T13:03:43;10.83;;;9.83;;
8861;SDS011;4799;50.996;4.754;2023-08-17T13:06:09;12.07;;;10.80;;
8861;SDS011;4799;50.996;4.754;2023-08-17T13:08:35;11.67;;;10.43;;
8861;SDS011;4799;50.996;4.754;2023-08-17T13:11:01;11.00;;;9.90;;
8861;SDS011;4799;50.996;4.754;2023-08-17T13:13:26;12.07;;;9.27;;
8861;SDS011;4799;50.996;4.754;2023-08-17T13:15:52;10.47;;;9.37;;
8861;SDS011;4799;50.996;4.754;2023-08-17T13:18:18;11.30;;;10.27;;
8861;SDS011;4799;50.996;4.754;2023-08-17T13:20:43;10.53;;;9.53;;
8861;SDS011;4799;50.996;4.754;2023-08-17T13:23:10;11.83;;;10.70;;
8861;SDS011;4799;50.996;4.754;2023-08-17T13:25:36;10.77;;;9.77;;
8861;SDS011;4799;50.996;4.754;2023-08-17T13:28:02;11.63;;;10.53;;
8861;SDS011;4799;50.996;4.754;2023-08-17T13:30:28;11.40;;;10.30;;
8861;SDS011;4799;50.996;4.754;2023-08-17T13:32:55;13.67;;;12.30;;
8861;SDS011;4799;50.996;4.754;2023-08-17T13:35:21;12.70;;;11.50;;
8861;SDS011;4799;50.996;4.754;2023-08-17T13:37:50;15.10;;;13.80;;
8861;SDS011;4799;50.996;4.754;2023-08-17T13:40:18;14.77;;;13.43;;
8861;SDS011;4799;50.996;4.754;2023-08-17T13:42:44;15.30;;;13.90;;
8861;SDS011;4799;50.996;4.754;2023-08-17T13:45:09;14.93;;;13.60;;
8861;SDS011;4799;50.996;4.754;2023-08-17T13:47:35;15.27;;;14.03;;
8861;SDS011;4799;50.996;4.754;2023-08-17T13:50:01;14.10;;;12.80;;
8861;SDS011;4799;50.996;4.754;2023-08-17T13:52:28;13.73;;;12.53;;
8861;SDS011;4799;50.996;4.754;2023-08-17T13:54:54;13.83;;;12.50;;
8861;SDS011;4799;50.996;4.754;2023-08-17T13:57:20;16.00;;;14.60;;
8861;SDS011;4799;50.996;4.754;2023-08-17T13:59:45;15.37;;;14.03;;
8861;SDS011;4799;50.996;4.754;2023-08-17T14:02:11;15.03;;;13.60;;
8861;SDS011;4799;50.996;4.754;2023-08-17T14:04:37;15.03;;;13.73;;
8861;SDS011;4799;50.996;4.754;2023-08-17T14:07:02;13.87;;;12.73;;
8861;SDS011;4799;50.996;4.754;2023-08-17T14:09:29;14.10;;;12.90;;
8861;SDS011;4799;50.996;4.754;2023-08-17T14:11:55;13.13;;;11.83;;
8861;SDS011;4799;50.996;4.754;2023-08-17T14:14:21;12.47;;;11.37;;
8861;SDS011;4799;50.996;4.754;2023-08-17T14:16:46;13.00;;;11.67;;
8861;SDS011;4799;50.996;4.754;2023-08-17T14:19:12;12.40;;;11.30;;
8861;SDS011;4799;50.996;4.754;2023-08-17T14:21:38;12.07;;;10.87;;
8861;SDS011;4799;50.996;4.754;2023-08-17T14:24:04;12.80;;;11.70;;
8861;SDS011;4799;50.996;4.754;2023-08-17T14:26:31;13.93;;;12.50;;
8861;SDS011;4799;50.996;4.754;2023-08-17T14:28:57;13.83;;;12.43;;
8861;SDS011;4799;50.996;4.754;2023-08-17T14:31:23;13.90;;;12.60;;
8861;SDS011;4799;50.996;4.754;2023-08-17T14:33:49;14.67;;;13.13;;
8861;SDS011;4799;50.996;4.754;2023-08-17T14:36:15;15.03;;;13.63;;
8861;SDS011;4799;50.996;4.754;2023-08-17T14:38:40;14.13;;;12.73;;
8861;SDS011;4799;50.996;4.754;2023-08-17T14:41:06;14.90;;;13.50;;
8861;SDS011;4799;50.996;4.754;2023-08-17T14:43:33;14.80;;;13.30;;
8861;SDS011;4799;50.996;4.754;2023-08-17T14:45:59;14.00;;;12.47;;
8861;SDS011;4799;50.996;4.754;2023-08-17T14:48:25;13.87;;;12.67;;
8861;SDS011;4799;50.996;4.754;2023-08-17T14:50:51;15.07;;;13.70;;
8861;SDS011;4799;50.996;4.754;2023-08-17T14:53:17;14.03;;;12.83;;
8861;SDS011;4799;50.996;4.754;2023-08-17T14:55:43;14.47;;;13.07;;
8861;SDS011;4799;50.996;4.754;2023-08-17T14:58:08;15.00;;;13.60;;
8861;SDS011;4799;50.996;4.754;2023-08-17T15:00:34;13.93;;;12.73;;
8861;SDS011;4799;50.996;4.754;2023-08-17T15:03:00;14.00;;;12.60;;
8861;SDS011;4799;50.996;4.754;2023-08-17T15:05:26;14.63;;;13.33;;
8861;SDS011;4799;50.996;4.754;2023-08-17T15:07:52;13.97;;;12.57;;
8861;SDS011;4799;50.996;4.754;2023-08-17T15:10:18;14.63;;;13.33;;
8861;SDS011;4799;50.996;4.754;2023-08-17T15:12:44;16.17;;;14.63;;
8861;SDS011;4799;50.996;4.754;2023-08-17T15:15:09;14.63;;;13.33;;
8861;SDS011;4799;50.996;4.754;2023-08-17T15:17:35;13.50;;;12.20;;
8861;SDS011;4799;50.996;4.754;2023-08-17T15:20:01;15.33;;;13.70;;
8861;SDS011;4799;50.996;4.754;2023-08-17T15:22:28;13.43;;;12.23;;
8861;SDS011;4799;50.996;4.754;2023-08-17T15:24:53;14.30;;;12.87;;